Time;durP1;ratioP1;P1;durP2;ratioP2;P2;SDS_P1;SDS_P2;PMS_P1;PMS_P2;Temp;Humidity;BMP_temperature;BMP_pressure;BME280_temperature;BME280_humidity;BME280_pressure;Samples;Min_cycle;Max_cycle;Signal;HPM_P1;HPM_P2
2023/01/27 00:01:02;;;;;;;28.37;14.47;;;-0.70;99.90;;;;;;5032089;28;20518;-73
2023/01/27 00:03:28;;;;;;;34.77;16.40;;;-0.70;99.90;;;;;;5031769;28;20206;-73
2023/01/27 00:05:53;;;;;;;28.20;15.03;;;-0.60;99.90;;;;;;5032188;28;20200;-73
2023/01/27 00:08:19;;;;;;;30.00;16.40;;;-0.60;99.90;;;;;;5031823;28;20192;-74
2023/01/27 00:10:45;;;;;;;26.33;15.20;;;-0.60;99.90;;;;;;5032005;28;20231;-73
2023/01/27 00:13:26;;;;;;;32.40;14.67;;;-0.70;99.90;;;;;;5031216;28;20186;-73
2023/01/27 00:15:51;;;;;;;24.60;14.03;;;-0.60;99.90;;;;;;5032130;28;20560;-73
2023/01/27 00:18:17;;;;;;;25.70;14.20;;;-0.60;99.90;;;;;;5031457;28;20428;-73
2023/01/27 00:26:13;;;;;;;30.37;15.00;;;-0.60;99.90;;;;;;5031911;28;20416;-73
2023/01/27 00:28:40;;;;;;;23.53;13.57;;;-0.60;99.90;;;;;;5031592;28;20414;-74
2023/01/27 00:33:53;;;;;;;26.80;15.37;;;-0.60;99.90;;;;;;5031782;28;20500;-74
2023/01/27 00:36:18;;;;;;;29.13;14.77;;;-0.60;99.90;;;;;;5031514;28;20491;-75
2023/01/27 00:38:44;;;;;;;27.17;14.17;;;-0.50;99.90;;;;;;5031858;28;20493;-74
2023/01/27 00:41:18;;;;;;;28.10;15.83;;;-0.60;99.90;;;;;;5039607;28;20213;-73
2023/01/27 00:43:48;;;;;;;30.40;15.10;;;-0.50;99.90;;;;;;5031369;28;20593;-74
2023/01/27 00:46:15;;;;;;;31.00;15.43;;;-0.50;99.90;;;;;;5031094;28;20439;-74
2023/01/27 00:48:41;;;;;;;31.30;15.67;;;-0.50;99.90;;;;;;5013772;28;20435;-74
2023/01/27 00:51:06;;;;;;;28.23;15.83;;;-0.40;99.90;;;;;;5013624;28;20483;-74
2023/01/27 00:53:32;;;;;;;25.20;15.00;;;-0.50;99.90;;;;;;5031026;28;20198;-74
2023/01/27 00:55:58;;;;;;;32.17;15.70;;;-0.50;99.90;;;;;;5031404;28;20226;-74
2023/01/27 00:58:25;;;;;;;29.80;15.83;;;-0.50;99.90;;;;;;5031007;28;20287;-73
2023/01/27 01:00:55;;;;;;;31.57;16.27;;;-0.50;99.90;;;;;;5031108;28;20203;-73
2023/01/27 01:03:21;;;;;;;30.20;16.27;;;-0.60;99.90;;;;;;5022712;28;20431;-74
2023/01/27 01:05:48;;;;;;;27.87;15.37;;;-0.50;99.90;;;;;;5031282;28;20457;-72
2023/01/27 01:08:14;;;;;;;32.03;15.87;;;-0.60;99.90;;;;;;5022866;28;20519;-73
2023/01/27 01:10:39;;;;;;;30.30;15.13;;;-0.60;99.90;;;;;;5031404;28;20527;-74
2023/01/27 01:13:10;;;;;;;27.80;13.67;;;-0.50;99.90;;;;;;5031078;28;20247;-74
2023/01/27 01:15:37;;;;;;;27.17;12.90;;;-0.60;99.90;;;;;;5023824;28;20234;-74
2023/01/27 01:18:03;;;;;;;31.97;15.73;;;-0.70;99.90;;;;;;5031199;28;20462;-73
2023/01/27 01:20:29;;;;;;;28.70;13.77;;;-0.70;99.90;;;;;;5030803;28;20471;-74
2023/01/27 01:22:55;;;;;;;34.43;16.70;;;-0.60;99.90;;;;;;5030994;28;20413;-74
2023/01/27 01:25:21;;;;;;;25.80;13.70;;;-0.60;99.90;;;;;;5028839;28;20557;-73
2023/01/27 01:27:47;;;;;;;31.50;14.83;;;-0.60;99.90;;;;;;5017086;28;20460;-74
2023/01/27 01:30:12;;;;;;;28.23;13.70;;;-0.60;99.90;;;;;;5013422;28;20187;-73
2023/01/27 01:32:38;;;;;;;27.70;12.90;;;-0.60;99.90;;;;;;5030845;28;20719;-73
2023/01/27 01:35:04;;;;;;;29.07;13.47;;;-0.60;99.90;;;;;;5031013;28;20200;-73
2023/01/27 01:37:29;;;;;;;23.27;13.77;;;-0.60;99.90;;;;;;5019708;28;20266;-73
2023/01/27 01:39:55;;;;;;;28.20;13.77;;;-0.60;99.90;;;;;;5028854;28;20212;-73
2023/01/27 01:42:20;;;;;;;19.20;13.10;;;-0.60;99.90;;;;;;5032924;28;20212;-74
2023/01/27 01:44:46;;;;;;;20.13;10.53;;;-0.60;99.90;;;;;;5034715;28;20188;-74
2023/01/27 01:47:18;;;;;;;25.07;11.60;;;-0.60;99.90;;;;;;5034194;28;20246;-74
2023/01/27 01:49:45;;;;;;;24.00;10.10;;;-0.60;99.90;;;;;;5028248;28;20274;-74
2023/01/27 01:52:20;;;;;;;25.90;13.30;;;-0.60;99.90;;;;;;5034113;28;20446;-73
2023/01/27 01:54:50;;;;;;;18.70;11.00;;;-0.60;99.90;;;;;;5016353;28;20430;-74
2023/01/27 01:57:27;;;;;;;22.13;10.57;;;-0.60;99.90;;;;;;5033981;28;20453;-74
2023/01/27 02:00:02;;;;;;;16.53;9.20;;;-0.60;99.90;;;;;;5016664;28;20962;-74
2023/01/27 03:30:29;;;;;;;23.70;12.47;;;-0.60;99.90;;;;;;6089715;22;20354;-71
2023/01/27 03:32:55;;;;;;;24.23;12.90;;;-0.60;99.90;;;;;;4975945;28;20411;-73
2023/01/27 03:35:22;;;;;;;27.40;12.27;;;-0.60;99.90;;;;;;4973859;28;20545;-73
2023/01/27 03:46:19;;;;;;;20.60;11.70;;;-0.60;99.90;;;;;;4988880;28;21031;-74
2023/01/27 03:48:53;;;;;;;21.70;12.43;;;-0.50;99.90;;;;;;4993294;28;20423;-73
2023/01/27 03:51:20;;;;;;;22.13;12.50;;;-0.50;99.90;;;;;;4992935;28;20452;-73
2023/01/27 03:53:46;;;;;;;21.73;12.80;;;-0.50;99.90;;;;;;4975346;28;20494;-73
2023/01/27 03:56:13;;;;;;;24.30;13.03;;;-0.50;99.90;;;;;;4992426;28;20433;-73
2023/01/27 03:58:39;;;;;;;24.43;14.13;;;-0.50;99.90;;;;;;4989111;28;20481;-74
2023/01/27 04:01:11;;;;;;;28.67;13.67;;;-0.50;99.90;;;;;;4973007;28;20447;-73
2023/01/27 04:09:12;;;;;;;25.77;15.53;;;-0.60;99.90;;;;;;4984948;28;20857;-73
2023/01/27 04:14:34;;;;;;;27.50;15.40;;;-0.50;99.90;;;;;;4989382;28;20440;-72
2023/01/27 04:17:01;;;;;;;27.67;16.77;;;-0.50;99.90;;;;;;4992422;28;20513;-74
2023/01/27 04:19:28;;;;;;;29.70;15.07;;;-0.50;99.90;;;;;;4974974;28;20758;-74
2023/01/27 04:21:54;;;;;;;31.30;17.17;;;-0.50;99.90;;;;;;4972692;28;20547;-73
2023/01/27 04:24:22;;;;;;;28.90;15.50;;;-0.50;99.90;;;;;;4989013;28;20420;-73
2023/01/27 04:27:00;;;;;;;25.77;16.13;;;-0.50;99.90;;;;;;4992056;28;20467;-74
2023/01/27 04:29:33;;;;;;;25.17;15.97;;;-0.50;99.90;;;;;;4992153;28;20560;-74
2023/01/27 04:32:00;;;;;;;30.10;16.03;;;-0.50;99.90;;;;;;4992004;28;20540;-73
2023/01/27 04:34:26;;;;;;;29.07;17.70;;;-0.60;99.90;;;;;;4991663;28;20514;-73
2023/01/27 04:36:52;;;;;;;28.90;16.30;;;-0.60;99.90;;;;;;4992029;28;20977;-73
2023/01/27 04:39:18;;;;;;;34.43;17.17;;;-0.50;99.90;;;;;;4992053;28;20472;-73
2023/01/27 04:41:44;;;;;;;29.00;16.67;;;-0.60;99.90;;;;;;4991465;28;20449;-73
2023/01/27 04:44:10;;;;;;;30.00;17.27;;;-0.50;99.90;;;;;;4991760;28;20699;-73
2023/01/27 04:46:36;;;;;;;32.13;17.30;;;-0.50;99.90;;;;;;4991471;28;20437;-73
2023/01/27 04:49:03;;;;;;;31.70;17.90;;;-0.50;99.90;;;;;;4991861;28;20423;-73
2023/01/27 04:51:29;;;;;;;32.67;17.93;;;-0.50;99.90;;;;;;4990137;28;20460;-73
2023/01/27 04:53:55;;;;;;;29.37;17.90;;;-0.50;99.90;;;;;;4991534;28;20497;-73
2023/01/27 04:56:27;;;;;;;31.47;17.77;;;-0.50;99.90;;;;;;4991440;28;20201;-73
2023/01/27 04:58:53;;;;;;;26.77;16.07;;;-0.50;99.90;;;;;;4984379;28;20571;-73
2023/01/27 05:01:19;;;;;;;32.50;18.47;;;-0.50;99.90;;;;;;4991356;28;20564;-74
2023/01/27 05:03:45;;;;;;;30.30;16.90;;;-0.50;99.90;;;;;;4991463;28;20432;-73
2023/01/27 05:06:11;;;;;;;33.67;18.47;;;-0.60;99.90;;;;;;4991929;28;20807;-73
2023/01/27 05:08:37;;;;;;;32.50;18.10;;;-0.60;99.90;;;;;;4992540;28;20195;-74
2023/01/27 05:11:03;;;;;;;31.10;16.80;;;-0.60;99.90;;;;;;4992878;28;20458;-73
2023/01/27 05:13:28;;;;;;;31.47;17.17;;;-0.60;99.90;;;;;;4991572;28;20444;-74
2023/01/27 05:16:09;;;;;;;33.90;17.70;;;-0.60;99.90;;;;;;4991108;28;20202;-73
2023/01/27 05:18:35;;;;;;;27.77;16.30;;;-0.60;99.90;;;;;;4995218;28;20197;-72
2023/01/27 05:21:01;;;;;;;28.53;18.13;;;-0.60;99.90;;;;;;4991430;28;20455;-73
2023/01/27 05:23:36;;;;;;;29.37;15.93;;;-0.60;99.90;;;;;;4992939;28;20277;-73
2023/01/27 05:26:12;;;;;;;25.90;16.27;;;-0.60;99.90;;;;;;4996253;28;20412;-73
2023/01/27 05:28:39;;;;;;;31.70;16.90;;;-0.60;99.90;;;;;;4992648;28;20446;-73
2023/01/27 05:31:11;;;;;;;27.13;16.77;;;-0.60;99.90;;;;;;4995627;28;20875;-73
2023/01/27 05:33:37;;;;;;;35.30;17.53;;;-0.50;99.90;;;;;;4995301;28;20582;-73
2023/01/27 05:36:04;;;;;;;35.10;18.00;;;-0.50;99.90;;;;;;4990613;28;20516;-73
2023/01/27 05:38:30;;;;;;;30.83;17.93;;;-0.50;99.90;;;;;;4975879;28;20204;-73
2023/01/27 05:41:02;;;;;;;28.70;16.80;;;-0.50;99.90;;;;;;4976188;28;20506;-73
2023/01/27 05:43:33;;;;;;;29.93;15.77;;;-0.50;99.90;;;;;;4992148;28;20482;-73
2023/01/27 05:46:09;;;;;;;31.33;17.47;;;-0.50;99.90;;;;;;4982936;28;20452;-74
2023/01/27 05:48:37;;;;;;;31.07;16.10;;;-0.50;99.90;;;;;;4975837;28;20444;-74
2023/01/27 05:51:04;;;;;;;33.93;16.07;;;-0.40;99.90;;;;;;4975823;28;20549;-74
2023/01/27 05:53:30;;;;;;;31.37;16.40;;;-0.40;99.90;;;;;;4974936;28;20782;-73
2023/01/27 05:55:56;;;;;;;31.43;16.50;;;-0.40;99.90;;;;;;4975503;28;20426;-73
2023/01/27 05:58:22;;;;;;;32.20;16.07;;;-0.40;99.90;;;;;;4989620;28;20216;-74
2023/01/27 06:00:48;;;;;;;30.00;15.30;;;-0.50;99.90;;;;;;4995022;28;20450;-73
2023/01/27 06:03:14;;;;;;;31.70;16.00;;;-0.40;99.90;;;;;;4994557;28;20406;-74
2023/01/27 06:05:52;;;;;;;30.17;17.17;;;-0.40;99.90;;;;;;4987023;28;20562;-74
2023/01/27 06:08:18;;;;;;;27.57;16.07;;;-0.40;99.90;;;;;;4994828;28;20428;-74
2023/01/27 06:10:43;;;;;;;31.10;16.63;;;-0.40;99.90;;;;;;4976456;28;20439;-74
2023/01/27 06:13:09;;;;;;;27.30;15.60;;;-0.40;99.90;;;;;;4975182;28;20198;-72
2023/01/27 06:15:34;;;;;;;26.77;15.63;;;-0.50;99.90;;;;;;4975027;28;20205;-74
2023/01/27 06:18:00;;;;;;;27.37;15.20;;;-0.40;99.90;;;;;;4994828;28;20192;-74
2023/01/27 06:20:25;;;;;;;34.33;15.70;;;-0.50;99.90;;;;;;4994291;28;20249;-73
2023/01/27 06:22:51;;;;;;;31.43;17.10;;;-0.40;99.90;;;;;;4973619;28;20221;-74
2023/01/27 06:25:16;;;;;;;29.87;15.87;;;-0.40;99.90;;;;;;4975161;28;20189;-73
2023/01/27 06:27:43;;;;;;;34.50;18.00;;;-0.40;99.90;;;;;;4975115;28;20196;-74
2023/01/27 06:30:09;;;;;;;35.20;17.20;;;-0.40;99.90;;;;;;4975386;28;20201;-74
2023/01/27 06:32:35;;;;;;;28.83;15.90;;;-0.40;99.90;;;;;;4973383;28;20840;-73
2023/01/27 06:35:01;;;;;;;30.17;15.63;;;-0.30;99.90;;;;;;4983239;28;20516;-74
2023/01/27 06:37:29;;;;;;;31.23;16.70;;;-0.30;99.90;;;;;;4982622;28;20559;-73
2023/01/27 06:39:55;;;;;;;27.10;15.50;;;-0.30;99.90;;;;;;4974975;28;20218;-74
2023/01/27 06:42:20;;;;;;;24.77;15.03;;;-0.30;99.90;;;;;;4984342;28;20439;-73
2023/01/27 06:44:46;;;;;;;26.73;14.37;;;-0.30;99.90;;;;;;4989028;28;20572;-74
2023/01/27 06:47:11;;;;;;;25.67;14.87;;;-0.20;99.90;;;;;;4994182;28;20188;-75
2023/01/27 06:49:37;;;;;;;26.57;15.20;;;-0.20;99.90;;;;;;4962234;28;20213;-75
2023/01/27 06:52:02;;;;;;;30.43;15.53;;;-0.20;99.90;;;;;;4982730;28;20209;-75
2023/01/27 06:54:28;;;;;;;29.00;15.70;;;-0.20;99.90;;;;;;4974436;28;20207;-73
2023/01/27 06:56:53;;;;;;;27.90;13.90;;;-0.20;99.90;;;;;;4994329;28;20193;-73
2023/01/27 06:59:19;;;;;;;27.33;14.07;;;-0.20;99.90;;;;;;4991293;28;20235;-74
2023/01/27 07:01:44;;;;;;;27.97;16.40;;;-0.10;99.90;;;;;;4993842;28;20221;-73
2023/01/27 07:04:10;;;;;;;27.60;14.60;;;-0.10;99.90;;;;;;4993729;28;20463;-71
2023/01/27 07:06:35;;;;;;;25.20;13.37;;;-0.10;99.90;;;;;;4993658;28;20672;-73
2023/01/27 07:09:01;;;;;;;23.10;12.97;;;0.00;99.90;;;;;;4989396;28;20202;-72
2023/01/27 07:11:26;;;;;;;23.43;14.30;;;0.00;99.90;;;;;;4974027;28;20678;-73
2023/01/27 07:13:52;;;;;;;23.97;14.43;;;0.00;99.90;;;;;;4981779;28;20278;-72
2023/01/27 07:16:17;;;;;;;24.33;13.90;;;0.00;99.90;;;;;;4956841;28;20190;-72
2023/01/27 07:18:43;;;;;;;22.67;12.80;;;0.00;99.90;;;;;;4986251;28;20260;-72
2023/01/27 07:21:08;;;;;;;24.60;13.13;;;-0.10;99.90;;;;;;4987966;28;20218;-72
2023/01/27 07:23:34;;;;;;;28.40;14.13;;;-0.10;99.90;;;;;;4982180;28;20187;-71
2023/01/27 07:26:03;;;;;;;24.43;13.97;;;-0.10;99.90;;;;;;4993484;28;20185;-72
2023/01/27 07:28:29;;;;;;;23.93;13.77;;;-0.10;99.90;;;;;;4993403;28;20212;-72
2023/01/27 07:30:54;;;;;;;24.20;13.37;;;-0.10;99.90;;;;;;4993247;28;20453;-72
2023/01/27 07:33:20;;;;;;;23.83;12.70;;;-0.10;99.90;;;;;;4985838;28;20182;-71
2023/01/27 07:35:48;;;;;;;25.90;14.20;;;-0.10;99.90;;;;;;4965956;28;20186;-72
2023/01/27 07:38:14;;;;;;;23.93;13.77;;;-0.10;99.90;;;;;;4992611;28;20194;-72
2023/01/27 07:40:40;;;;;;;23.67;14.07;;;-0.10;99.90;;;;;;4983542;28;20851;-73
2023/01/27 07:43:06;;;;;;;24.37;11.70;;;-0.20;99.90;;;;;;4973391;28;20445;-71
2023/01/27 07:45:31;;;;;;;22.27;13.87;;;0.00;99.90;;;;;;4973499;28;20205;-70
2023/01/27 07:48:02;;;;;;;25.17;12.47;;;0.00;99.90;;;;;;4985137;28;20265;-73
2023/01/27 07:50:28;;;;;;;20.60;11.73;;;0.00;99.90;;;;;;4985171;28;20229;-73
2023/01/27 07:52:53;;;;;;;22.17;11.80;;;-0.10;99.90;;;;;;4992448;28;20503;-73
2023/01/27 07:55:19;;;;;;;22.07;12.50;;;0.00;99.90;;;;;;4992354;28;20461;-72
2023/01/27 07:57:44;;;;;;;26.50;13.50;;;-0.10;99.90;;;;;;4982962;28;20591;-72
2023/01/27 08:00:14;;;;;;;22.33;12.40;;;0.00;99.90;;;;;;4973174;28;20283;-71
2023/01/27 08:02:39;;;;;;;20.10;11.57;;;-0.10;99.90;;;;;;4972947;28;20215;-72
2023/01/27 08:05:06;;;;;;;24.63;13.70;;;-0.10;99.90;;;;;;4973104;28;20873;-72
2023/01/27 08:07:31;;;;;;;26.40;12.50;;;-0.10;99.90;;;;;;4972946;28;20199;-73
2023/01/27 08:09:57;;;;;;;18.40;10.63;;;-0.20;99.90;;;;;;4992336;28;20437;-73
2023/01/27 08:12:23;;;;;;;20.77;11.40;;;-0.10;99.90;;;;;;4991948;28;20459;-73
2023/01/27 08:14:48;;;;;;;20.13;10.33;;;-0.10;99.90;;;;;;4956511;28;20599;-73
2023/01/27 08:17:14;;;;;;;18.50;11.90;;;-0.10;99.90;;;;;;4978376;28;20225;-70
2023/01/27 08:19:39;;;;;;;19.60;11.60;;;-0.10;99.90;;;;;;4991829;28;20209;-73
2023/01/27 08:22:05;;;;;;;23.47;10.60;;;0.00;99.90;;;;;;4992034;28;20203;-72
2023/01/27 08:24:30;;;;;;;23.03;10.87;;;0.00;99.90;;;;;;4991631;28;20197;-73
2023/01/27 08:26:56;;;;;;;22.10;10.67;;;0.00;99.90;;;;;;4984223;28;20192;-72
2023/01/27 08:29:21;;;;;;;19.03;11.60;;;0.00;99.90;;;;;;4985625;28;20189;-73
2023/01/27 08:31:47;;;;;;;18.93;10.40;;;-0.10;99.90;;;;;;4982522;28;20230;-73
2023/01/27 08:34:12;;;;;;;20.00;11.17;;;-0.10;99.90;;;;;;4978635;28;20428;-73
2023/01/27 08:36:40;;;;;;;19.40;11.80;;;0.00;99.90;;;;;;4971046;28;20683;-71
2023/01/27 08:39:07;;;;;;;22.50;11.27;;;0.00;99.90;;;;;;4984987;28;20647;-73
2023/01/27 08:41:32;;;;;;;20.63;10.93;;;0.00;99.90;;;;;;4991897;28;20539;-72
2023/01/27 08:43:58;;;;;;;21.10;11.33;;;0.00;99.90;;;;;;4988253;28;20532;-73
2023/01/27 08:46:24;;;;;;;18.20;9.10;;;0.00;99.90;;;;;;4972575;28;20517;-72
2023/01/27 08:48:50;;;;;;;15.53;9.40;;;0.00;99.90;;;;;;4989950;28;20202;-73
2023/01/27 08:51:16;;;;;;;21.10;10.33;;;0.00;99.90;;;;;;4991455;28;20217;-71
2023/01/27 08:53:42;;;;;;;24.63;11.60;;;0.00;99.90;;;;;;4991573;28;20921;-71
2023/01/27 08:56:11;;;;;;;22.60;11.37;;;0.00;99.90;;;;;;4991931;28;20197;-73
2023/01/27 08:58:37;;;;;;;19.20;11.20;;;-0.10;99.90;;;;;;4991331;28;20621;-72
2023/01/27 09:01:04;;;;;;;21.77;10.97;;;-0.10;99.90;;;;;;4972495;28;20456;-73
2023/01/27 09:03:31;;;;;;;19.70;10.13;;;0.00;99.90;;;;;;4979331;28;20576;-74
2023/01/27 09:05:57;;;;;;;21.17;10.83;;;0.00;99.90;;;;;;4991682;28;20438;-73
2023/01/27 09:08:23;;;;;;;20.17;11.17;;;0.00;99.90;;;;;;4991604;28;20433;-73
2023/01/27 09:10:48;;;;;;;19.73;10.40;;;0.10;99.90;;;;;;4991863;28;20447;-73
2023/01/27 09:13:15;;;;;;;22.37;10.50;;;0.10;99.90;;;;;;4991332;28;20562;-73
2023/01/27 09:15:42;;;;;;;21.00;10.20;;;0.10;99.90;;;;;;4991590;28;20197;-73
2023/01/27 09:18:08;;;;;;;18.67;10.70;;;0.00;99.90;;;;;;4992028;28;20817;-73
2023/01/27 09:20:35;;;;;;;23.27;10.63;;;0.10;99.90;;;;;;4991613;28;20476;-72
2023/01/27 09:23:02;;;;;;;19.53;10.83;;;0.10;99.90;;;;;;4991672;28;20448;-73
2023/01/27 09:25:27;;;;;;;22.93;11.30;;;0.10;99.90;;;;;;4991424;28;20436;-73
2023/01/27 09:27:57;;;;;;;21.07;10.57;;;0.00;99.90;;;;;;4981492;28;20524;-73
2023/01/27 09:30:24;;;;;;;18.67;10.93;;;0.10;99.90;;;;;;4971950;28;20219;-73
2023/01/27 09:32:49;;;;;;;22.93;11.03;;;0.00;99.90;;;;;;4981790;28;20432;-73
2023/01/27 09:35:15;;;;;;;26.00;12.30;;;0.10;99.90;;;;;;4986164;28;20779;-72
2023/01/27 09:37:53;;;;;;;18.63;10.60;;;0.10;99.90;;;;;;4971991;28;20685;-72
2023/01/27 09:40:30;;;;;;;20.53;9.97;;;0.20;99.90;;;;;;4985496;28;20206;-71
2023/01/27 09:43:08;;;;;;;24.13;11.67;;;0.10;99.90;;;;;;4983283;28;20576;-73
2023/01/27 09:45:49;;;;;;;21.90;11.07;;;0.10;99.90;;;;;;4975907;28;20517;-73
2023/01/27 09:48:49;;;;;;;27.30;11.10;;;0.20;99.90;;;;;;4972071;28;20484;-72
2023/01/27 09:51:20;;;;;;;22.13;12.00;;;0.20;99.90;;;;;;4980122;28;20479;-72
2023/01/27 09:54:18;;;;;;;30.07;12.77;;;0.20;99.90;;;;;;4979981;28;20831;-74
2023/01/27 09:56:54;;;;;;;27.93;11.63;;;0.10;99.90;;;;;;4976213;28;20810;-72
2023/01/27 09:59:46;;;;;;;29.17;12.40;;;0.10;99.90;;;;;;4985501;28;20471;-71
2023/01/27 10:02:37;;;;;;;29.50;12.23;;;0.10;99.90;;;;;;4980067;28;20437;-73
2023/01/27 10:05:30;;;;;;;21.93;10.60;;;0.20;99.90;;;;;;4982307;28;20472;-73
2023/01/27 10:08:27;;;;;;;26.97;12.10;;;0.20;99.90;;;;;;4993796;28;20403;-72
2023/01/27 10:11:12;;;;;;;30.40;12.80;;;0.30;99.90;;;;;;4984957;28;20838;-73
2023/01/27 10:14:04;;;;;;;25.60;11.77;;;0.30;99.90;;;;;;4975402;28;20432;-73
2023/01/27 10:16:48;;;;;;;24.33;11.90;;;0.40;99.90;;;;;;4983572;28;20494;-74
2023/01/27 10:19:34;;;;;;;32.13;13.83;;;0.40;99.90;;;;;;4987814;28;20480;-72
2023/01/27 10:22:33;;;;;;;21.67;10.40;;;0.40;99.90;;;;;;4994484;28;20825;-73
2023/01/27 10:25:15;;;;;;;26.67;11.37;;;0.50;99.90;;;;;;4976847;28;20443;-73
2023/01/27 10:27:47;;;;;;;25.73;11.50;;;0.60;99.90;;;;;;4986886;28;20509;-70
2023/01/27 10:30:20;;;;;;;23.63;10.77;;;0.60;99.90;;;;;;4983591;28;20990;-73
2023/01/27 10:32:55;;;;;;;20.73;9.63;;;0.70;99.90;;;;;;4991269;28;20810;-73
2023/01/27 10:35:34;;;;;;;24.53;9.53;;;0.70;99.90;;;;;;4988397;28;20483;-74
2023/01/27 10:38:37;;;;;;;21.60;9.00;;;0.80;99.90;;;;;;4994615;28;20407;-73
2023/01/27 10:41:21;;;;;;;22.00;10.63;;;0.80;99.90;;;;;;4942541;28;20565;-73
2023/01/27 10:44:18;;;;;;;18.63;11.00;;;0.90;99.90;;;;;;4990795;28;20442;-73
2023/01/27 10:47:09;;;;;;;18.77;10.57;;;1.10;99.90;;;;;;4991424;28;20512;-73
2023/01/27 10:49:41;;;;;;;19.73;9.77;;;0.90;99.90;;;;;;4955951;28;20493;-73
2023/01/27 10:52:15;;;;;;;18.47;9.63;;;1.00;99.90;;;;;;4992129;28;20986;-73
2023/01/27 10:55:11;;;;;;;18.47;8.87;;;1.00;99.90;;;;;;4993768;28;20464;-73
2023/01/27 10:57:42;;;;;;;19.50;9.00;;;0.90;99.90;;;;;;4955880;28;20442;-74
2023/01/27 11:00:24;;;;;;;15.73;8.40;;;1.00;99.90;;;;;;4985991;28;20543;-73
2023/01/27 11:02:50;;;;;;;19.30;8.47;;;1.10;99.90;;;;;;4993697;28;20494;-73
2023/01/27 11:05:22;;;;;;;17.60;9.47;;;1.00;99.90;;;;;;4993756;28;20497;-72
2023/01/27 11:07:55;;;;;;;19.30;9.20;;;1.00;99.90;;;;;;4976924;28;20282;-72
2023/01/27 11:10:24;;;;;;;16.10;8.50;;;1.10;99.90;;;;;;4974318;28;20442;-73
2023/01/27 11:12:54;;;;;;;17.40;9.00;;;1.10;99.90;;;;;;4981290;28;20416;-73
2023/01/27 11:15:26;;;;;;;14.37;8.17;;;1.10;99.90;;;;;;4974200;28;20445;-73
2023/01/27 11:18:14;;;;;;;16.97;8.60;;;1.10;99.90;;;;;;4974370;28;20444;-73
2023/01/27 11:20:44;;;;;;;23.87;9.50;;;1.20;99.90;;;;;;4974259;28;20506;-73
2023/01/27 11:23:14;;;;;;;18.33;9.13;;;1.00;99.90;;;;;;4985595;28;20430;-71
2023/01/27 11:25:45;;;;;;;18.60;9.27;;;1.10;99.90;;;;;;4986373;28;20931;-73
2023/01/27 11:28:29;;;;;;;19.67;9.70;;;1.10;99.90;;;;;;4974052;28;20414;-73
2023/01/27 11:31:23;;;;;;;20.40;9.87;;;1.10;99.90;;;;;;4989830;28;20463;-73
2023/01/27 11:33:53;;;;;;;23.73;9.90;;;1.00;99.90;;;;;;4973829;28;20781;-72
2023/01/27 11:36:19;;;;;;;19.67;9.83;;;1.10;99.90;;;;;;4982030;28;20953;-72
2023/01/27 11:38:45;;;;;;;18.37;8.73;;;1.10;99.90;;;;;;4973659;28;20473;-71
2023/01/27 11:41:11;;;;;;;21.60;9.47;;;1.10;99.90;;;;;;4985329;28;20672;-74
2023/01/27 11:43:37;;;;;;;20.10;9.90;;;1.10;99.90;;;;;;4992901;28;20418;-73
2023/01/27 11:46:06;;;;;;;18.33;8.90;;;1.10;99.90;;;;;;4993169;28;20272;-73
2023/01/27 11:48:45;;;;;;;15.50;8.07;;;1.10;99.90;;;;;;4986584;28;20438;-73
2023/01/27 11:51:21;;;;;;;20.70;9.60;;;1.20;99.90;;;;;;4993053;28;20473;-74
2023/01/27 11:54:06;;;;;;;65.43;20.47;;;1.30;99.90;;;;;;4984575;28;20429;-74
2023/01/27 11:56:34;;;;;;;17.50;9.20;;;1.30;99.90;;;;;;4987756;28;20435;-74
2023/01/27 11:59:12;;;;;;;18.13;8.93;;;1.30;99.90;;;;;;4991094;28;20949;-73
2023/01/27 12:01:46;;;;;;;17.83;8.53;;;1.30;99.90;;;;;;4987553;28;20483;-73
2023/01/27 12:04:40;;;;;;;17.80;9.03;;;1.30;99.90;;;;;;4992157;28;20431;-73
2023/01/27 12:07:37;;;;;;;23.53;9.13;;;1.30;99.90;;;;;;4956785;28;20522;-72
2023/01/27 12:10:22;;;;;;;85.07;16.40;;;1.30;99.90;;;;;;4973323;28;20478;-73
2023/01/27 12:12:47;;;;;;;19.03;9.03;;;1.30;99.90;;;;;;4981011;28;20935;-71
2023/01/27 12:15:15;;;;;;;19.30;8.53;;;1.20;99.90;;;;;;4976582;28;20409;-73
2023/01/27 12:17:44;;;;;;;16.60;8.37;;;1.20;99.90;;;;;;4989226;28;20565;-72
2023/01/27 12:20:29;;;;;;;17.77;9.87;;;1.20;99.90;;;;;;4972934;28;21060;-72
2023/01/27 12:22:59;;;;;;;18.90;9.40;;;1.20;99.90;;;;;;4973879;28;20440;-72
2023/01/27 12:25:29;;;;;;;19.70;10.40;;;1.20;99.90;;;;;;4992140;28;20449;-73
2023/01/27 12:28:01;;;;;;;19.63;10.10;;;1.30;99.90;;;;;;4992187;28;20437;-73
2023/01/27 12:30:30;;;;;;;19.20;11.27;;;1.30;99.90;;;;;;4991905;28;20442;-73
2023/01/27 12:32:57;;;;;;;22.50;11.90;;;1.20;99.90;;;;;;4974897;28;20440;-73
2023/01/27 12:35:33;;;;;;;17.13;10.43;;;1.30;99.90;;;;;;4955385;28;20524;-71
2023/01/27 12:38:23;;;;;;;18.40;10.50;;;1.30;99.90;;;;;;4982183;28;20443;-73
2023/01/27 12:40:58;;;;;;;18.23;9.60;;;1.30;99.90;;;;;;4992006;28;20942;-71
2023/01/27 12:43:23;;;;;;;19.50;11.47;;;1.30;99.90;;;;;;4991589;28;20401;-73
2023/01/27 12:46:10;;;;;;;21.80;11.20;;;1.30;99.90;;;;;;4991930;28;20450;-70
2023/01/27 12:48:47;;;;;;;20.03;11.07;;;1.30;99.90;;;;;;4986544;28;20251;-73
2023/01/27 12:51:22;;;;;;;18.47;10.50;;;1.30;99.90;;;;;;4972874;28;20489;-73
2023/01/27 12:54:35;;;;;;;30.90;11.37;;;1.30;99.90;;;;;;4972743;28;20418;-73
2023/01/27 12:57:10;;;;;;;23.47;11.73;;;1.30;99.90;;;;;;4986728;28;20441;-72
2023/01/27 12:59:47;;;;;;;24.50;12.60;;;1.20;99.90;;;;;;4985898;28;20565;-72
2023/01/27 13:02:31;;;;;;;20.30;11.40;;;1.40;99.90;;;;;;4991730;28;20541;-72
2023/01/27 13:05:00;;;;;;;22.17;12.87;;;1.40;99.90;;;;;;4974826;28;20410;-71
2023/01/27 13:07:29;;;;;;;21.17;12.23;;;1.40;99.90;;;;;;4985509;28;20432;-73
2023/01/27 13:10:01;;;;;;;22.57;12.33;;;1.30;99.90;;;;;;4983808;28;20440;-73
2023/01/27 13:12:29;;;;;;;27.20;13.53;;;1.30;99.90;;;;;;4975877;28;20460;-73
2023/01/27 13:14:57;;;;;;;21.87;13.50;;;1.20;99.90;;;;;;4991620;28;20540;-73
2023/01/27 13:17:44;;;;;;;23.27;14.10;;;1.20;99.90;;;;;;4991817;28;20895;-73
2023/01/27 13:20:28;;;;;;;21.50;12.07;;;1.20;99.90;;;;;;4992077;28;20474;-73
2023/01/27 13:23:03;;;;;;;26.47;13.30;;;1.20;99.90;;;;;;4988172;28;20943;-71
2023/01/27 13:25:41;;;;;;;28.77;12.30;;;1.10;99.90;;;;;;4981641;28;20455;-73
2023/01/27 13:28:10;;;;;;;22.40;13.07;;;1.10;99.90;;;;;;4979759;28;20442;-73
2023/01/27 13:30:39;;;;;;;29.23;13.20;;;1.10;99.90;;;;;;4982378;28;20480;-73
2023/01/27 13:33:33;;;;;;;22.37;12.93;;;1.20;99.90;;;;;;4980878;28;20859;-73
2023/01/27 13:36:15;;;;;;;24.80;13.10;;;1.20;99.90;;;;;;4980884;28;20486;-73
2023/01/27 13:38:47;;;;;;;25.10;13.10;;;1.20;99.90;;;;;;4991122;28;21076;-72
2023/01/27 13:41:23;;;;;;;26.50;12.87;;;1.20;99.90;;;;;;4992975;28;20462;-72
2023/01/27 13:44:02;;;;;;;24.10;12.73;;;1.10;99.90;;;;;;4984709;28;20525;-73
2023/01/27 13:46:35;;;;;;;21.87;12.60;;;1.10;99.90;;;;;;4984204;28;20458;-72
2023/01/27 13:49:13;;;;;;;23.13;13.30;;;1.20;99.90;;;;;;4986260;28;20465;-72
2023/01/27 13:51:39;;;;;;;20.60;12.70;;;1.20;99.90;;;;;;4987470;28;20846;-73
2023/01/27 13:54:04;;;;;;;21.83;12.53;;;1.20;99.90;;;;;;4992292;28;20454;-72
2023/01/27 13:56:56;;;;;;;23.67;12.17;;;1.10;99.90;;;;;;4987675;28;20599;-71
2023/01/27 13:59:37;;;;;;;22.20;12.60;;;1.10;99.90;;;;;;4986769;28;20255;-73
2023/01/27 14:02:21;;;;;;;21.47;11.87;;;1.00;99.90;;;;;;4986505;28;20873;-73
2023/01/27 14:05:10;;;;;;;24.93;13.30;;;1.10;99.90;;;;;;5001357;28;20445;-73
2023/01/27 14:07:46;;;;;;;20.60;10.90;;;1.00;99.90;;;;;;4980559;28;20871;-72
2023/01/27 14:10:35;;;;;;;22.60;11.43;;;0.90;99.90;;;;;;4993781;28;20460;-72
2023/01/27 14:13:15;;;;;;;21.90;11.53;;;0.90;99.90;;;;;;4985818;28;20465;-73
2023/01/27 14:16:11;;;;;;;19.27;11.20;;;0.90;99.90;;;;;;4993606;28;20477;-73
2023/01/27 14:18:46;;;;;;;31.60;12.10;;;0.90;99.90;;;;;;4988249;28;20452;-73
2023/01/27 14:21:38;;;;;;;22.60;10.93;;;1.00;99.90;;;;;;4987926;28;20490;-73
2023/01/27 14:24:10;;;;;;;19.97;10.77;;;0.90;99.90;;;;;;4985703;28;20461;-73
2023/01/27 14:27:00;;;;;;;18.13;11.10;;;1.00;99.90;;;;;;4993932;28;20467;-72
2023/01/27 14:29:25;;;;;;;20.07;10.43;;;0.90;99.90;;;;;;4986418;28;20506;-72
2023/01/27 14:32:17;;;;;;;17.67;10.83;;;0.90;99.90;;;;;;4967657;28;20506;-73
2023/01/27 14:34:51;;;;;;;14.90;10.47;;;0.90;99.90;;;;;;4988236;28;20217;-71
2023/01/27 14:37:21;;;;;;;18.60;10.87;;;0.90;99.90;;;;;;4993453;28;20444;-73
2023/01/27 14:40:18;;;;;;;17.07;10.50;;;0.90;99.90;;;;;;4993547;28;20476;-73
2023/01/27 14:43:22;;;;;;;14.77;9.60;;;0.90;99.90;;;;;;4988058;28;20469;-72
2023/01/27 14:45:57;;;;;;;19.07;10.50;;;0.90;99.90;;;;;;4983227;28;20464;-73
2023/01/27 14:48:46;;;;;;;20.20;11.97;;;0.90;99.90;;;;;;4986337;28;20429;-73